Independence — WDD6659 — position and weather

sailwx.info

Track history (hours):
 
Tides and Currents Weather Stations Pressure Air Temp Water Temp Dewpoint Dewpoint Depression Visibility Wind Speed Wind Dir Waves Ship Positions

Independence

Owner: Sortwell, Inc. DBA AmNav Maritime Services, Oakland, CA. More information available from US FCC via Universal Licensing System and Coast Guard Vessel Documentation Center.

Last reported at 2017-Feb-17 05:27 UTC. Time now 2017-Feb-20 11:06 UTC.
Position N 33°44' W 118°17'.

Length 24 m; draft 4.9 m.

Type: Tug. MMSI: 367175860.

Date/timePositionNaut miles runAvg speedWind from/ knotsBaromVisibWave heightAir tempDewpointWater temp
2017-Feb-17 05:27N 33°44' W 118°17'0 0.5
2017-Feb-17 04:33N 33°43' W 118°16'3 2.4
2017-Feb-17 03:12N 33°44' W 118°12'2 3.0
2017-Feb-17 02:33N 33°46' W 118°13'2 1.9
2017-Feb-17 01:33N 33°46' W 118°16'3 2.9
2017-Feb-17 00:34N 33°43' W 118°15'3 2.7
2017-Feb-16 23:33N 33°44' W 118°11'2 2.0
2017-Feb-16 22:33N 33°45' W 118°13'0 0.3
2017-Feb-16 21:33N 33°45' W 118°13'3 3.1
2017-Feb-16 20:33N 33°44' W 118°16'0 0.0
2017-Feb-16 19:09N 33°44' W 118°16'0 0.0
2017-Feb-16 18:33N 33°44' W 118°16'0 0.0
2017-Feb-16 17:33N 33°44' W 118°16'0 0.0
2017-Feb-16 16:33N 33°44' W 118°16'0 0.1
2017-Feb-16 15:33N 33°44' W 118°17'0 0.0
2017-Feb-16 14:33N 33°44' W 118°17'0 0.0
2017-Feb-16 13:33N 33°44' W 118°17'0 0.0
2017-Feb-16 12:33N 33°44' W 118°17'0 0.0
2017-Feb-16 11:32N 33°44' W 118°17'0 0.0
2017-Feb-16 10:32N 33°44' W 118°17'0 0.0
2017-Feb-16 09:33N 33°44' W 118°17'2 1.6
2017-Feb-16 08:33N 33°45' W 118°17'0 0.2
2017-Feb-16 07:34N 33°45' W 118°17'0 0.0
2017-Feb-16 06:33N 33°45' W 118°17'3 2.8
2017-Feb-16 05:34N 33°46' W 118°13'1 0.5
2017-Feb-16 04:25N 33°46' W 118°13'1 1.7
2017-Feb-16 03:32N 33°45' W 118°13'1 1.4
2017-Feb-16 02:33N 33°44' W 118°12'2 1.8
2017-Feb-16 01:15N 33°42' W 118°13'4 5.7
2017-Feb-16 00:33N 33°44' W 118°17'1 1.4
2017-Feb-15 23:33N 33°45' W 118°16'2 2.4
2017-Feb-15 22:34N 33°43' W 118°16'3 3.2
2017-Feb-15 21:33N 33°45' W 118°13'2 2.4
2017-Feb-15 20:33N 33°44' W 118°11'3 2.7
2017-Feb-15 19:34N 33°42' W 118°09'3 3.3
2017-Feb-15 18:33N 33°44' W 118°12'2 1.9
2017-Feb-15 17:33N 33°45' W 118°13'3 2.2
2017-Feb-15 16:26N 33°44' W 118°11'4 4.3
2017-Feb-15 15:33N 33°40' W 118°11'4 3.9
2017-Feb-15 14:33N 33°42' W 118°15'2 2.2
2017-Feb-15 13:33N 33°44' W 118°16'0 0.0
2017-Feb-15 12:33N 33°44' W 118°16'0 0.0
2017-Feb-15 11:33N 33°44' W 118°16'3 3.1
2017-Feb-15 10:34N 33°45' W 118°13'1 0.6
2017-Feb-15 09:34N 33°45' W 118°13'0 0.0
2017-Feb-15 08:33N 33°45' W 118°13'0 0.1
2017-Feb-15 07:33N 33°45' W 118°13'3 3.3
2017-Feb-15 06:33N 33°44' W 118°16'0 0.1
2017-Feb-15 03:14N 33°44' W 118°17'0 0.1
2017-Feb-15 02:33N 33°44' W 118°16'1 1.2
2017-Feb-15 01:33N 33°45' W 118°16'1 1.2
2017-Feb-15 00:33N 33°44' W 118°17'0 0.0
2017-Feb-14 23:33N 33°44' W 118°17'2 1.6
2017-Feb-14 22:33N 33°45' W 118°17'0 0.5
2017-Feb-14 21:33N 33°45' W 118°16'6 6.0
2017-Feb-14 20:32N 33°40' W 118°14'4 3.5
2017-Feb-14 19:33N 33°43' W 118°15'1 1.3
2017-Feb-14 18:30N 33°44' W 118°17'0 0.0
2017-Feb-14 17:31N 33°44' W 118°17'0 0.0
2017-Feb-14 16:24N 33°44' W 118°17'0 0.0
2017-Feb-14 15:33N 33°44' W 118°17'2 1.8
2017-Feb-14 14:34N 33°46' W 118°17'0 0.2
2017-Feb-14 13:33N 33°46' W 118°17'2 2.0
2017-Feb-14 12:33N 33°44' W 118°17'0 0.0
2017-Feb-14 11:33N 33°44' W 118°17'0 0.0
2017-Feb-14 10:32N 33°44' W 118°17'0 0.0
2017-Feb-14 09:33N 33°44' W 118°17'0 0.0
2017-Feb-14 08:31N 33°44' W 118°17'0 0.0
2017-Feb-14 07:33N 33°44' W 118°17'0 0.0
2017-Feb-14 06:33N 33°44' W 118°17'0 0.0
2017-Feb-14 05:32N 33°44' W 118°17'0 0.0
2017-Feb-14 04:30N 33°44' W 118°17'0 0.0
2017-Feb-14 03:11N 33°44' W 118°17'3 4.3
2017-Feb-14 02:25N 33°45' W 118°13'0 0.0
2017-Feb-14 01:33N 33°45' W 118°13'0 0.0
2017-Feb-14 00:34N 33°45' W 118°13'3 2.3
2017-Feb-13 23:28N 33°44' W 118°11'2 1.8
2017-Feb-13 22:33N 33°43' W 118°13'3 3.1
2017-Feb-13 21:33N 33°44' W 118°17'0 0.0
2017-Feb-13 20:27N 33°44' W 118°17'0 0.0
2017-Feb-13 19:33N 33°44' W 118°17'0 0.0
2017-Feb-13 17:16N 33°44' W 118°17'0 0.4
2017-Feb-13 16:33N 33°44' W 118°17'2 1.8
2017-Feb-13 15:33N 33°46' W 118°17'1 1.3
2017-Feb-13 14:33N 33°46' W 118°15'1 1.0
2017-Feb-13 13:33N 33°45' W 118°16'2 1.7
2017-Feb-13 12:33N 33°44' W 118°17'0 0.0
2017-Feb-13 02:20N 33°44' W 118°17'5 6.1
2017-Feb-13 01:33N 33°44' W 118°11'5 1.2
2017-Feb-12 21:24N 33°44' W 118°17'4 5.3
2017-Feb-12 20:33N 33°44' W 118°11'1 1.4
2017-Feb-12 19:32N 33°44' W 118°10'6 5.2
2017-Feb-12 18:27N 33°43' W 118°16'0 0.0
2017-Feb-10 16:26N 33°44' W 118°17'0 0.0
2017-Feb-10 15:32N 33°44' W 118°17'1 0.7
2017-Feb-10 14:34N 33°44' W 118°16'1 1.1
2017-Feb-10 13:34N 33°43' W 118°15'1 0.3
2017-Feb-10 09:31N 33°44' W 118°15'1 0.7
2017-Feb-10 07:33N 33°45' W 118°16'1 0.6
2017-Feb-10 05:25N 33°44' W 118°17'0 0.0
2017-Feb-10 04:23N 33°44' W 118°17'0 0.0
2017-Feb-10 03:12N 33°44' W 118°17'0 0.1
2017-Feb-10 00:06N 33°44' W 118°16'4 7.6
2017-Feb-09 23:33N 33°43' W 118°11'4 4.3
2017-Feb-09 22:34N 33°44' W 118°17'1 1.1
2017-Feb-09 21:20N 33°46' W 118°16'4 4.4
2017-Feb-09 20:33N 33°42' W 118°14'1 1.2
2017-Feb-09 19:30N 33°43' W 118°13'2 1.4
2017-Feb-09 18:21N 33°44' W 118°12'2 1.4
2017-Feb-09 17:12N 33°45' W 118°13'1 0.1
2017-Feb-09 09:21N 33°44' W 118°13'4 1.9
2017-Feb-09 07:26N 33°41' W 118°10'  
Track history (hours):
 
Tides and Currents Weather Stations Pressure Air Temp Water Temp Dewpoint Dewpoint Depression Visibility Wind Speed Wind Dir Waves Ship Positions

Independence

Owner: Sortwell, Inc. DBA AmNav Maritime Services, Oakland, CA. More information available from US FCC via Universal Licensing System and Coast Guard Vessel Documentation Center.

Last reported at 2017-Feb-17 05:27 UTC. Time now 2017-Feb-20 11:06 UTC.
Position N 33°44' W 118°17'.

Length 24 m; draft 4.9 m.

Type: Tug. MMSI: 367175860.

Date/timePositionNaut miles runAvg speedWind from/ knotsBaromVisibWave heightAir tempDewpointWater temp
2017-Feb-17 05:27N 33°44' W 118°17'0 0.5
2017-Feb-17 04:33N 33°43' W 118°16'3 2.4
2017-Feb-17 03:12N 33°44' W 118°12'2 3.0
2017-Feb-17 02:33N 33°46' W 118°13'2 1.9
2017-Feb-17 01:33N 33°46' W 118°16'3 2.9
2017-Feb-17 00:34N 33°43' W 118°15'3 2.7
2017-Feb-16 23:33N 33°44' W 118°11'2 2.0
2017-Feb-16 22:33N 33°45' W 118°13'0 0.3
2017-Feb-16 21:33N 33°45' W 118°13'3 3.1
2017-Feb-16 20:33N 33°44' W 118°16'0 0.0
2017-Feb-16 19:09N 33°44' W 118°16'0 0.0
2017-Feb-16 18:33N 33°44' W 118°16'0 0.0
2017-Feb-16 17:33N 33°44' W 118°16'0 0.0
2017-Feb-16 16:33N 33°44' W 118°16'0 0.1
2017-Feb-16 15:33N 33°44' W 118°17'0 0.0
2017-Feb-16 14:33N 33°44' W 118°17'0 0.0
2017-Feb-16 13:33N 33°44' W 118°17'0 0.0
2017-Feb-16 12:33N 33°44' W 118°17'0 0.0
2017-Feb-16 11:32N 33°44' W 118°17'0 0.0
2017-Feb-16 10:32N 33°44' W 118°17'0 0.0
2017-Feb-16 09:33N 33°44' W 118°17'2 1.6
2017-Feb-16 08:33N 33°45' W 118°17'0 0.2
2017-Feb-16 07:34N 33°45' W 118°17'0 0.0
2017-Feb-16 06:33N 33°45' W 118°17'3 2.8
2017-Feb-16 05:34N 33°46' W 118°13'1 0.5
2017-Feb-16 04:25N 33°46' W 118°13'1 1.7
2017-Feb-16 03:32N 33°45' W 118°13'1 1.4
2017-Feb-16 02:33N 33°44' W 118°12'2 1.8
2017-Feb-16 01:15N 33°42' W 118°13'4 5.7
2017-Feb-16 00:33N 33°44' W 118°17'1 1.4
2017-Feb-15 23:33N 33°45' W 118°16'2 2.4
2017-Feb-15 22:34N 33°43' W 118°16'3 3.2
2017-Feb-15 21:33N 33°45' W 118°13'2 2.4
2017-Feb-15 20:33N 33°44' W 118°11'3 2.7
2017-Feb-15 19:34N 33°42' W 118°09'3 3.3
2017-Feb-15 18:33N 33°44' W 118°12'2 1.9
2017-Feb-15 17:33N 33°45' W 118°13'3 2.2
2017-Feb-15 16:26N 33°44' W 118°11'4 4.3
2017-Feb-15 15:33N 33°40' W 118°11'4 3.9
2017-Feb-15 14:33N 33°42' W 118°15'2 2.2
2017-Feb-15 13:33N 33°44' W 118°16'0 0.0
2017-Feb-15 12:33N 33°44' W 118°16'0 0.0
2017-Feb-15 11:33N 33°44' W 118°16'3 3.1
2017-Feb-15 10:34N 33°45' W 118°13'1 0.6
2017-Feb-15 09:34N 33°45' W 118°13'0 0.0
2017-Feb-15 08:33N 33°45' W 118°13'0 0.1
2017-Feb-15 07:33N 33°45' W 118°13'3 3.3
2017-Feb-15 06:33N 33°44' W 118°16'0 0.1
2017-Feb-15 03:14N 33°44' W 118°17'0 0.1
2017-Feb-15 02:33N 33°44' W 118°16'1 1.2
2017-Feb-15 01:33N 33°45' W 118°16'1 1.2
2017-Feb-15 00:33N 33°44' W 118°17'0 0.0
2017-Feb-14 23:33N 33°44' W 118°17'2 1.6
2017-Feb-14 22:33N 33°45' W 118°17'0 0.5
2017-Feb-14 21:33N 33°45' W 118°16'6 6.0
2017-Feb-14 20:32N 33°40' W 118°14'4 3.5
2017-Feb-14 19:33N 33°43' W 118°15'1 1.3
2017-Feb-14 18:30N 33°44' W 118°17'0 0.0
2017-Feb-14 17:31N 33°44' W 118°17'0 0.0
2017-Feb-14 16:24N 33°44' W 118°17'0 0.0
2017-Feb-14 15:33N 33°44' W 118°17'2 1.8
2017-Feb-14 14:34N 33°46' W 118°17'0 0.2
2017-Feb-14 13:33N 33°46' W 118°17'2 2.0
2017-Feb-14 12:33N 33°44' W 118°17'0 0.0
2017-Feb-14 11:33N 33°44' W 118°17'0 0.0
2017-Feb-14 10:32N 33°44' W 118°17'0 0.0
2017-Feb-14 09:33N 33°44' W 118°17'0 0.0
2017-Feb-14 08:31N 33°44' W 118°17'0 0.0
2017-Feb-14 07:33N 33°44' W 118°17'0 0.0
2017-Feb-14 06:33N 33°44' W 118°17'0 0.0
2017-Feb-14 05:32N 33°44' W 118°17'0 0.0
2017-Feb-14 04:30N 33°44' W 118°17'0 0.0
2017-Feb-14 03:11N 33°44' W 118°17'3 4.3
2017-Feb-14 02:25N 33°45' W 118°13'0 0.0
2017-Feb-14 01:33N 33°45' W 118°13'0 0.0
2017-Feb-14 00:34N 33°45' W 118°13'3 2.3
2017-Feb-13 23:28N 33°44' W 118°11'2 1.8
2017-Feb-13 22:33N 33°43' W 118°13'3 3.1
2017-Feb-13 21:33N 33°44' W 118°17'0 0.0
2017-Feb-13 20:27N 33°44' W 118°17'0 0.0
2017-Feb-13 19:33N 33°44' W 118°17'0 0.0
2017-Feb-13 17:16N 33°44' W 118°17'0 0.4
2017-Feb-13 16:33N 33°44' W 118°17'2 1.8
2017-Feb-13 15:33N 33°46' W 118°17'1 1.3
2017-Feb-13 14:33N 33°46' W 118°15'1 1.0
2017-Feb-13 13:33N 33°45' W 118°16'2 1.7
2017-Feb-13 12:33N 33°44' W 118°17'0 0.0
2017-Feb-13 02:20N 33°44' W 118°17'5 6.1
2017-Feb-13 01:33N 33°44' W 118°11'5 1.2
2017-Feb-12 21:24N 33°44' W 118°17'4 5.3
2017-Feb-12 20:33N 33°44' W 118°11'1 1.4
2017-Feb-12 19:32N 33°44' W 118°10'6 5.2
2017-Feb-12 18:27N 33°43' W 118°16'0 0.0
2017-Feb-10 16:26N 33°44' W 118°17'0 0.0
2017-Feb-10 15:32N 33°44' W 118°17'1 0.7
2017-Feb-10 14:34N 33°44' W 118°16'1 1.1
2017-Feb-10 13:34N 33°43' W 118°15'1 0.3
2017-Feb-10 09:31N 33°44' W 118°15'1 0.7
2017-Feb-10 07:33N 33°45' W 118°16'1 0.6
2017-Feb-10 05:25N 33°44' W 118°17'0 0.0
2017-Feb-10 04:23N 33°44' W 118°17'0 0.0
2017-Feb-10 03:12N 33°44' W 118°17'0 0.1
2017-Feb-10 00:06N 33°44' W 118°16'4 7.6
2017-Feb-09 23:33N 33°43' W 118°11'4 4.3
2017-Feb-09 22:34N 33°44' W 118°17'1 1.1
2017-Feb-09 21:20N 33°46' W 118°16'4 4.4
2017-Feb-09 20:33N 33°42' W 118°14'1 1.2
2017-Feb-09 19:30N 33°43' W 118°13'2 1.4
2017-Feb-09 18:21N 33°44' W 118°12'2 1.4
2017-Feb-09 17:12N 33°45' W 118°13'1 0.1
2017-Feb-09 09:21N 33°44' W 118°13'4 1.9
2017-Feb-09 07:26N 33°41' W 118°10'  

Dump ship's entire track history